sensor_id;sensor_type;location;lat;lon;timestamp;temperature;humidity
23562;DHT22;11959;49.418;8.728;2022-11-20T00:01:15;4.70;99.90
23562;DHT22;11959;49.418;8.728;2022-11-20T00:03:41;4.80;99.90
23562;DHT22;11959;49.418;8.728;2022-11-20T00:06:09;4.70;99.90
23562;DHT22;11959;49.418;8.728;2022-11-20T00:08:36;4.70;99.90
23562;DHT22;11959;49.418;8.728;2022-11-20T00:11:04;4.70;99.90
23562;DHT22;11959;49.418;8.728;2022-11-20T00:13:29;4.70;99.90
23562;DHT22;11959;49.418;8.728;2022-11-20T00:15:59;4.70;99.90
23562;DHT22;11959;49.418;8.728;2022-11-20T00:18:25;4.70;99.90
23562;DHT22;11959;49.418;8.728;2022-11-20T00:20:51;4.70;99.90
23562;DHT22;11959;49.418;8.728;2022-11-20T00:23:17;4.70;99.90
23562;DHT22;11959;49.418;8.728;2022-11-20T00:25:42;4.70;99.90
23562;DHT22;11959;49.418;8.728;2022-11-20T00:28:08;4.70;99.90
23562;DHT22;11959;49.418;8.728;2022-11-20T00:30:34;4.70;99.90
23562;DHT22;11959;49.418;8.728;2022-11-20T00:32:59;4.70;99.90
23562;DHT22;11959;49.418;8.728;2022-11-20T00:35:25;4.70;99.90
23562;DHT22;11959;49.418;8.728;2022-11-20T00:37:50;4.70;99.90
23562;DHT22;11959;49.418;8.728;2022-11-20T00:40:16;4.70;99.90
23562;DHT22;11959;49.418;8.728;2022-11-20T00:42:42;4.70;99.90
23562;DHT22;11959;49.418;8.728;2022-11-20T00:45:07;4.70;99.90
23562;DHT22;11959;49.418;8.728;2022-11-20T00:47:33;4.70;99.90
23562;DHT22;11959;49.418;8.728;2022-11-20T00:49:59;4.60;99.90
23562;DHT22;11959;49.418;8.728;2022-11-20T00:52:24;4.60;99.90
23562;DHT22;11959;49.418;8.728;2022-11-20T00:54:50;4.70;99.90
23562;DHT22;11959;49.418;8.728;2022-11-20T00:57:15;4.70;99.90
23562;DHT22;11959;49.418;8.728;2022-11-20T00:59:41;4.70;99.90
23562;DHT22;11959;49.418;8.728;2022-11-20T01:02:07;4.70;99.90
23562;DHT22;11959;49.418;8.728;2022-11-20T01:04:32;4.70;99.90
23562;DHT22;11959;49.418;8.728;2022-11-20T01:06:58;4.70;99.90
23562;DHT22;11959;49.418;8.728;2022-11-20T01:09:23;4.70;99.90
23562;DHT22;11959;49.418;8.728;2022-11-20T01:11:49;4.60;99.90
23562;DHT22;11959;49.418;8.728;2022-11-20T01:14:18;4.60;99.90
23562;DHT22;11959;49.418;8.728;2022-11-20T01:16:47;4.70;99.90
23562;DHT22;11959;49.418;8.728;2022-11-20T01:19:20;4.60;99.90
23562;DHT22;11959;49.418;8.728;2022-11-20T01:21:49;4.60;99.90
23562;DHT22;11959;49.418;8.728;2022-11-20T01:24:16;4.70;99.90
23562;DHT22;11959;49.418;8.728;2022-11-20T01:26:44;4.60;99.90
23562;DHT22;11959;49.418;8.728;2022-11-20T01:29:16;4.70;99.90
23562;DHT22;11959;49.418;8.728;2022-11-20T01:31:42;4.70;99.90
23562;DHT22;11959;49.418;8.728;2022-11-20T01:34:17;4.70;99.90
23562;DHT22;11959;49.418;8.728;2022-11-20T01:36:43;4.70;99.90
23562;DHT22;11959;49.418;8.728;2022-11-20T01:39:15;4.70;99.90
23562;DHT22;11959;49.418;8.728;2022-11-20T01:41:42;4.70;99.90
23562;DHT22;11959;49.418;8.728;2022-11-20T01:47:25;4.70;99.90
23562;DHT22;11959;49.418;8.728;2022-11-20T01:50:17;4.70;99.90
23562;DHT22;11959;49.418;8.728;2022-11-20T01:53:02;4.70;99.90
23562;DHT22;11959;49.418;8.728;2022-11-20T01:55:32;4.80;99.90
23562;DHT22;11959;49.418;8.728;2022-11-20T01:57:59;4.70;99.90
23562;DHT22;11959;49.418;8.728;2022-11-20T02:00:25;4.70;99.90
23562;DHT22;11959;49.418;8.728;2022-11-20T02:02:57;4.70;99.90
23562;DHT22;11959;49.418;8.728;2022-11-20T02:05:36;4.70;99.90
23562;DHT22;11959;49.418;8.728;2022-11-20T02:08:05;4.70;99.90
23562;DHT22;11959;49.418;8.728;2022-11-20T02:10:32;4.70;99.90
23562;DHT22;11959;49.418;8.728;2022-11-20T02:12:58;4.70;99.90
23562;DHT22;11959;49.418;8.728;2022-11-20T02:15:42;4.70;99.90
23562;DHT22;11959;49.418;8.728;2022-11-20T02:18:10;4.70;99.90
23562;DHT22;11959;49.418;8.728;2022-11-20T02:20:37;4.70;99.90
23562;DHT22;11959;49.418;8.728;2022-11-20T02:23:31;4.70;99.90
23562;DHT22;11959;49.418;8.728;2022-11-20T02:26:00;4.70;99.90
23562;DHT22;11959;49.418;8.728;2022-11-20T02:28:27;4.70;99.90
23562;DHT22;11959;49.418;8.728;2022-11-20T02:30:53;4.70;99.90
23562;DHT22;11959;49.418;8.728;2022-11-20T02:33:19;4.70;99.90
23562;DHT22;11959;49.418;8.728;2022-11-20T02:35:46;4.70;99.90
23562;DHT22;11959;49.418;8.728;2022-11-20T02:38:11;4.70;99.90
23562;DHT22;11959;49.418;8.728;2022-11-20T02:40:38;4.70;99.90
23562;DHT22;11959;49.418;8.728;2022-11-20T02:43:04;4.80;99.90
23562;DHT22;11959;49.418;8.728;2022-11-20T02:45:29;4.70;99.90
23562;DHT22;11959;49.418;8.728;2022-11-20T02:47:55;4.80;99.90
23562;DHT22;11959;49.418;8.728;2022-11-20T02:50:20;4.80;99.90
23562;DHT22;11959;49.418;8.728;2022-11-20T02:52:46;4.80;99.90
23562;DHT22;11959;49.418;8.728;2022-11-20T02:55:12;4.80;99.90
23562;DHT22;11959;49.418;8.728;2022-11-20T02:57:37;4.80;99.90
23562;DHT22;11959;49.418;8.728;2022-11-20T03:00:04;4.80;99.90
23562;DHT22;11959;49.418;8.728;2022-11-20T03:02:32;4.80;99.90
23562;DHT22;11959;49.418;8.728;2022-11-20T03:04:58;4.80;99.90
23562;DHT22;11959;49.418;8.728;2022-11-20T03:07:24;4.80;99.90
23562;DHT22;11959;49.418;8.728;2022-11-20T03:09:49;4.80;99.90
23562;DHT22;11959;49.418;8.728;2022-11-20T03:12:15;4.80;99.90
23562;DHT22;11959;49.418;8.728;2022-11-20T03:14:41;4.80;99.90
23562;DHT22;11959;49.418;8.728;2022-11-20T03:17:06;4.80;99.90
23562;DHT22;11959;49.418;8.728;2022-11-20T03:19:33;4.80;99.90
23562;DHT22;11959;49.418;8.728;2022-11-20T03:21:59;4.80;99.90
23562;DHT22;11959;49.418;8.728;2022-11-20T03:24:26;4.80;99.90
23562;DHT22;11959;49.418;8.728;2022-11-20T03:26:51;4.80;99.90
23562;DHT22;11959;49.418;8.728;2022-11-20T03:29:17;4.80;99.90
23562;DHT22;11959;49.418;8.728;2022-11-20T03:31:43;4.80;99.90
23562;DHT22;11959;49.418;8.728;2022-11-20T03:34:10;4.80;99.90
23562;DHT22;11959;49.418;8.728;2022-11-20T03:36:40;4.80;99.90
23562;DHT22;11959;49.418;8.728;2022-11-20T03:39:06;4.80;99.90
23562;DHT22;11959;49.418;8.728;2022-11-20T03:41:36;4.90;99.90
23562;DHT22;11959;49.418;8.728;2022-11-20T03:44:05;4.90;99.90
23562;DHT22;11959;49.418;8.728;2022-11-20T03:46:31;4.90;99.90
23562;DHT22;11959;49.418;8.728;2022-11-20T03:48:57;4.90;99.90
23562;DHT22;11959;49.418;8.728;2022-11-20T03:51:24;4.90;99.90
23562;DHT22;11959;49.418;8.728;2022-11-20T03:53:52;4.90;99.90
23562;DHT22;11959;49.418;8.728;2022-11-20T03:56:20;4.90;99.90
23562;DHT22;11959;49.418;8.728;2022-11-20T03:58:47;4.90;99.90
23562;DHT22;11959;49.418;8.728;2022-11-20T04:01:16;4.90;99.90
23562;DHT22;11959;49.418;8.728;2022-11-20T04:03:42;4.90;99.90
23562;DHT22;11959;49.418;8.728;2022-11-20T04:06:11;4.90;99.90
23562;DHT22;11959;49.418;8.728;2022-11-20T04:08:37;5.00;99.90
23562;DHT22;11959;49.418;8.728;2022-11-20T04:11:10;4.90;99.90
23562;DHT22;11959;49.418;8.728;2022-11-20T04:13:36;4.90;99.90
23562;DHT22;11959;49.418;8.728;2022-11-20T04:16:02;4.90;99.90
23562;DHT22;11959;49.418;8.728;2022-11-20T04:18:27;4.90;99.90
23562;DHT22;11959;49.418;8.728;2022-11-20T04:20:53;4.90;99.90
23562;DHT22;11959;49.418;8.728;2022-11-20T04:23:19;5.00;99.90
23562;DHT22;11959;49.418;8.728;2022-11-20T04:25:44;5.00;99.90
23562;DHT22;11959;49.418;8.728;2022-11-20T04:28:10;5.10;99.90
23562;DHT22;11959;49.418;8.728;2022-11-20T04:30:35;5.10;99.90
23562;DHT22;11959;49.418;8.728;2022-11-20T04:33:01;5.10;99.90
23562;DHT22;11959;49.418;8.728;2022-11-20T04:35:27;5.10;99.90
23562;DHT22;11959;49.418;8.728;2022-11-20T04:37:52;5.10;99.90
23562;DHT22;11959;49.418;8.728;2022-11-20T04:40:18;5.20;99.90
23562;DHT22;11959;49.418;8.728;2022-11-20T04:42:44;5.10;99.90
23562;DHT22;11959;49.418;8.728;2022-11-20T04:45:09;5.10;99.90
23562;DHT22;11959;49.418;8.728;2022-11-20T04:47:35;5.10;99.90
23562;DHT22;11959;49.418;8.728;2022-11-20T04:50:01;5.20;99.90
23562;DHT22;11959;49.418;8.728;2022-11-20T04:52:26;5.20;99.90
23562;DHT22;11959;49.418;8.728;2022-11-20T04:54:52;5.20;99.90
23562;DHT22;11959;49.418;8.728;2022-11-20T04:57:19;5.20;99.90
23562;DHT22;11959;49.418;8.728;2022-11-20T04:59:45;5.20;99.90
23562;DHT22;11959;49.418;8.728;2022-11-20T05:02:11;5.20;99.90
23562;DHT22;11959;49.418;8.728;2022-11-20T05:04:36;5.20;99.90
23562;DHT22;11959;49.418;8.728;2022-11-20T05:07:02;5.20;99.90
23562;DHT22;11959;49.418;8.728;2022-11-20T05:09:28;5.30;99.90
23562;DHT22;11959;49.418;8.728;2022-11-20T05:11:54;5.30;99.90
23562;DHT22;11959;49.418;8.728;2022-11-20T05:14:19;5.30;99.90
23562;DHT22;11959;49.418;8.728;2022-11-20T05:16:45;5.30;99.90
23562;DHT22;11959;49.418;8.728;2022-11-20T05:19:10;5.30;99.90
23562;DHT22;11959;49.418;8.728;2022-11-20T05:21:36;5.40;99.90
23562;DHT22;11959;49.418;8.728;2022-11-20T05:24:02;5.40;99.90
23562;DHT22;11959;49.418;8.728;2022-11-20T05:26:27;5.40;99.90
23562;DHT22;11959;49.418;8.728;2022-11-20T05:28:53;5.40;99.90
23562;DHT22;11959;49.418;8.728;2022-11-20T05:31:21;5.40;99.90
23562;DHT22;11959;49.418;8.728;2022-11-20T05:33:47;5.50;99.90
23562;DHT22;11959;49.418;8.728;2022-11-20T05:36:13;5.50;99.90
23562;DHT22;11959;49.418;8.728;2022-11-20T05:38:40;5.50;99.90
23562;DHT22;11959;49.418;8.728;2022-11-20T05:41:13;5.50;99.90
23562;DHT22;11959;49.418;8.728;2022-11-20T05:43:40;5.60;99.90
23562;DHT22;11959;49.418;8.728;2022-11-20T05:46:08;5.60;99.90
23562;DHT22;11959;49.418;8.728;2022-11-20T05:48:35;5.50;99.90
23562;DHT22;11959;49.418;8.728;2022-11-20T05:51:03;5.50;99.90
23562;DHT22;11959;49.418;8.728;2022-11-20T05:53:29;5.60;99.90
23562;DHT22;11959;49.418;8.728;2022-11-20T05:56:06;5.60;99.90
23562;DHT22;11959;49.418;8.728;2022-11-20T05:58:32;5.60;99.90
23562;DHT22;11959;49.418;8.728;2022-11-20T06:01:17;5.70;99.90
23562;DHT22;11959;49.418;8.728;2022-11-20T06:03:43;5.70;99.90
23562;DHT22;11959;49.418;8.728;2022-11-20T06:06:11;5.70;99.90
23562;DHT22;11959;49.418;8.728;2022-11-20T06:08:37;5.70;99.90
23562;DHT22;11959;49.418;8.728;2022-11-20T06:11:08;5.70;99.90
23562;DHT22;11959;49.418;8.728;2022-11-20T06:13:35;5.70;99.90
23562;DHT22;11959;49.418;8.728;2022-11-20T06:16:01;5.70;99.90
23562;DHT22;11959;49.418;8.728;2022-11-20T06:18:27;5.70;99.90
23562;DHT22;11959;49.418;8.728;2022-11-20T06:23:33;5.80;99.90
23562;DHT22;11959;49.418;8.728;2022-11-20T06:26:08;5.80;99.90
23562;DHT22;11959;49.418;8.728;2022-11-20T06:28:34;5.80;99.90
23562;DHT22;11959;49.418;8.728;2022-11-20T06:31:00;5.80;99.90
23562;DHT22;11959;49.418;8.728;2022-11-20T06:33:26;5.80;99.90
23562;DHT22;11959;49.418;8.728;2022-11-20T06:35:52;5.80;99.90
23562;DHT22;11959;49.418;8.728;2022-11-20T06:38:17;5.80;99.90
23562;DHT22;11959;49.418;8.728;2022-11-20T06:40:43;5.80;99.90
23562;DHT22;11959;49.418;8.728;2022-11-20T06:43:10;5.90;99.90
23562;DHT22;11959;49.418;8.728;2022-11-20T06:45:36;5.90;99.90
23562;DHT22;11959;49.418;8.728;2022-11-20T06:48:02;6.00;99.90
23562;DHT22;11959;49.418;8.728;2022-11-20T06:50:28;6.00;99.90
23562;DHT22;11959;49.418;8.728;2022-11-20T06:52:54;6.00;99.90
23562;DHT22;11959;49.418;8.728;2022-11-20T06:55:19;6.00;99.90
23562;DHT22;11959;49.418;8.728;2022-11-20T06:57:45;6.00;99.90
23562;DHT22;11959;49.418;8.728;2022-11-20T07:00:11;6.00;99.90
23562;DHT22;11959;49.418;8.728;2022-11-20T07:02:37;6.00;99.90
23562;DHT22;11959;49.418;8.728;2022-11-20T07:05:02;6.10;99.90
23562;DHT22;11959;49.418;8.728;2022-11-20T07:07:28;6.10;99.90
23562;DHT22;11959;49.418;8.728;2022-11-20T07:09:54;6.20;99.90
23562;DHT22;11959;49.418;8.728;2022-11-20T07:12:20;6.20;99.90
23562;DHT22;11959;49.418;8.728;2022-11-20T07:14:45;6.20;99.90
23562;DHT22;11959;49.418;8.728;2022-11-20T07:17:12;6.20;99.90
23562;DHT22;11959;49.418;8.728;2022-11-20T07:19:37;6.20;99.90
23562;DHT22;11959;49.418;8.728;2022-11-20T07:22:03;6.30;99.90
23562;DHT22;11959;49.418;8.728;2022-11-20T07:24:29;6.40;99.90
23562;DHT22;11959;49.418;8.728;2022-11-20T07:26:54;6.40;99.90
23562;DHT22;11959;49.418;8.728;2022-11-20T07:29:20;6.50;99.90
23562;DHT22;11959;49.418;8.728;2022-11-20T07:31:45;6.60;99.90
23562;DHT22;11959;49.418;8.728;2022-11-20T07:34:11;6.70;99.90
23562;DHT22;11959;49.418;8.728;2022-11-20T07:36:37;6.90;99.90
23562;DHT22;11959;49.418;8.728;2022-11-20T07:39:02;6.90;99.90
23562;DHT22;11959;49.418;8.728;2022-11-20T07:41:28;7.00;99.90
23562;DHT22;11959;49.418;8.728;2022-11-20T07:43:54;7.10;99.90
23562;DHT22;11959;49.418;8.728;2022-11-20T07:46:20;7.10;99.90
23562;DHT22;11959;49.418;8.728;2022-11-20T07:48:45;7.20;99.90
23562;DHT22;11959;49.418;8.728;2022-11-20T07:51:11;7.20;99.90
23562;DHT22;11959;49.418;8.728;2022-11-20T07:53:36;7.30;99.90
23562;DHT22;11959;49.418;8.728;2022-11-20T07:56:03;7.30;99.90
23562;DHT22;11959;49.418;8.728;2022-11-20T07:58:29;7.30;99.90
23562;DHT22;11959;49.418;8.728;2022-11-20T08:00:55;7.30;99.90
23562;DHT22;11959;49.418;8.728;2022-11-20T08:03:21;7.40;99.90
23562;DHT22;11959;49.418;8.728;2022-11-20T08:05:47;7.40;99.90
23562;DHT22;11959;49.418;8.728;2022-11-20T08:08:12;7.40;99.90
23562;DHT22;11959;49.418;8.728;2022-11-20T08:10:38;7.40;99.90
23562;DHT22;11959;49.418;8.728;2022-11-20T08:13:04;7.40;99.90
23562;DHT22;11959;49.418;8.728;2022-11-20T08:15:49;7.40;99.90
23562;DHT22;11959;49.418;8.728;2022-11-20T08:18:16;7.40;99.90
23562;DHT22;11959;49.418;8.728;2022-11-20T08:20:43;7.50;99.90
23562;DHT22;11959;49.418;8.728;2022-11-20T08:23:08;7.50;99.90
23562;DHT22;11959;49.418;8.728;2022-11-20T08:25:35;7.50;99.90
23562;DHT22;11959;49.418;8.728;2022-11-20T08:28:05;7.50;99.90
23562;DHT22;11959;49.418;8.728;2022-11-20T08:30:31;7.60;99.90
23562;DHT22;11959;49.418;8.728;2022-11-20T08:33:05;7.70;99.90
23562;DHT22;11959;49.418;8.728;2022-11-20T08:35:35;7.70;99.90
23562;DHT22;11959;49.418;8.728;2022-11-20T08:38:02;7.70;99.90
23562;DHT22;11959;49.418;8.728;2022-11-20T08:40:28;7.70;99.90
23562;DHT22;11959;49.418;8.728;2022-11-20T08:42:54;7.70;99.90
23562;DHT22;11959;49.418;8.728;2022-11-20T08:45:19;7.70;99.90
23562;DHT22;11959;49.418;8.728;2022-11-20T08:47:45;7.70;99.90
23562;DHT22;11959;49.418;8.728;2022-11-20T08:50:12;7.70;99.90
23562;DHT22;11959;49.418;8.728;2022-11-20T08:52:39;7.80;99.90
23562;DHT22;11959;49.418;8.728;2022-11-20T08:55:06;7.80;99.90
23562;DHT22;11959;49.418;8.728;2022-11-20T08:57:36;7.90;99.90
23562;DHT22;11959;49.418;8.728;2022-11-20T09:00:04;7.90;99.90
23562;DHT22;11959;49.418;8.728;2022-11-20T09:02:30;7.90;99.90
23562;DHT22;11959;49.418;8.728;2022-11-20T09:04:56;7.90;99.90
23562;DHT22;11959;49.418;8.728;2022-11-20T09:07:22;7.90;99.90
23562;DHT22;11959;49.418;8.728;2022-11-20T09:09:47;7.90;99.90
23562;DHT22;11959;49.418;8.728;2022-11-20T09:12:13;8.00;99.90
23562;DHT22;11959;49.418;8.728;2022-11-20T09:14:39;7.90;99.90
23562;DHT22;11959;49.418;8.728;2022-11-20T09:17:05;7.90;99.90
23562;DHT22;11959;49.418;8.728;2022-11-20T09:19:33;7.90;99.90
23562;DHT22;11959;49.418;8.728;2022-11-20T09:21:58;7.90;99.90
23562;DHT22;11959;49.418;8.728;2022-11-20T09:24:25;7.90;99.90
23562;DHT22;11959;49.418;8.728;2022-11-20T09:26:51;7.90;99.90
23562;DHT22;11959;49.418;8.728;2022-11-20T09:29:17;7.90;99.90
23562;DHT22;11959;49.418;8.728;2022-11-20T09:31:42;7.90;99.90
23562;DHT22;11959;49.418;8.728;2022-11-20T09:34:08;8.00;99.90
23562;DHT22;11959;49.418;8.728;2022-11-20T09:36:35;8.00;99.90
23562;DHT22;11959;49.418;8.728;2022-11-20T09:39:00;8.00;99.90
23562;DHT22;11959;49.418;8.728;2022-11-20T09:47:02;7.90;99.90
23562;DHT22;11959;49.418;8.728;2022-11-20T09:52:14;8.00;99.90
23562;DHT22;11959;49.418;8.728;2022-11-20T09:54:44;8.00;99.90
23562;DHT22;11959;49.418;8.728;2022-11-20T09:57:20;8.00;99.90
23562;DHT22;11959;49.418;8.728;2022-11-20T09:59:51;8.10;99.90
23562;DHT22;11959;49.418;8.728;2022-11-20T10:05:20;8.10;99.90
23562;DHT22;11959;49.418;8.728;2022-11-20T10:15:34;8.10;99.90
23562;DHT22;11959;49.418;8.728;2022-11-20T10:31:25;8.10;99.90
23562;DHT22;11959;49.418;8.728;2022-11-20T10:33:53;8.10;99.90
23562;DHT22;11959;49.418;8.728;2022-11-20T10:36:24;8.10;99.90
23562;DHT22;11959;49.418;8.728;2022-11-20T10:38:59;8.10;99.90
23562;DHT22;11959;49.418;8.728;2022-11-20T10:41:40;8.20;99.90
23562;DHT22;11959;49.418;8.728;2022-11-20T10:44:15;8.20;99.90
23562;DHT22;11959;49.418;8.728;2022-11-20T10:47:00;8.20;99.90
23562;DHT22;11959;49.418;8.728;2022-11-20T10:49:26;8.20;99.90
23562;DHT22;11959;49.418;8.728;2022-11-20T11:00:13;8.30;99.90
23562;DHT22;11959;49.418;8.728;2022-11-20T11:02:48;8.40;99.90
23562;DHT22;11959;49.418;8.728;2022-11-20T11:07:50;8.50;99.90
23562;DHT22;11959;49.418;8.728;2022-11-20T11:10:24;8.50;99.90
23562;DHT22;11959;49.418;8.728;2022-11-20T11:12:51;8.50;99.90
23562;DHT22;11959;49.418;8.728;2022-11-20T11:15:37;8.50;99.90
23562;DHT22;11959;49.418;8.728;2022-11-20T11:18:03;8.60;99.90
23562;DHT22;11959;49.418;8.728;2022-11-20T11:20:29;8.50;99.90
23562;DHT22;11959;49.418;8.728;2022-11-20T11:22:57;8.50;99.90
23562;DHT22;11959;49.418;8.728;2022-11-20T11:25:29;8.50;99.90
23562;DHT22;11959;49.418;8.728;2022-11-20T11:27:58;8.50;99.90
23562;DHT22;11959;49.418;8.728;2022-11-20T11:30:27;8.40;99.90
23562;DHT22;11959;49.418;8.728;2022-11-20T11:33:04;8.50;99.90
23562;DHT22;11959;49.418;8.728;2022-11-20T11:35:30;8.50;99.90
23562;DHT22;11959;49.418;8.728;2022-11-20T11:38:10;8.50;99.90
23562;DHT22;11959;49.418;8.728;2022-11-20T11:40:39;8.50;99.90
23562;DHT22;11959;49.418;8.728;2022-11-20T11:43:07;8.50;99.90
23562;DHT22;11959;49.418;8.728;2022-11-20T11:46:02;8.60;99.90
23562;DHT22;11959;49.418;8.728;2022-11-20T11:48:29;8.70;99.90
23562;DHT22;11959;49.418;8.728;2022-11-20T11:50:54;8.80;99.90
23562;DHT22;11959;49.418;8.728;2022-11-20T11:53:22;8.90;99.90
23562;DHT22;11959;49.418;8.728;2022-11-20T11:55:54;8.90;99.90
23562;DHT22;11959;49.418;8.728;2022-11-20T12:06:28;9.00;99.90
23562;DHT22;11959;49.418;8.728;2022-11-20T12:09:01;9.10;99.90
23562;DHT22;11959;49.418;8.728;2022-11-20T12:16:54;9.10;99.90
23562;DHT22;11959;49.418;8.728;2022-11-20T12:19:31;9.10;99.90
23562;DHT22;11959;49.418;8.728;2022-11-20T12:22:01;9.10;99.90
23562;DHT22;11959;49.418;8.728;2022-11-20T12:27:22;9.10;99.90
23562;DHT22;11959;49.418;8.728;2022-11-20T12:29:56;9.10;99.90
23562;DHT22;11959;49.418;8.728;2022-11-20T12:38:51;9.00;99.90
23562;DHT22;11959;49.418;8.728;2022-11-20T12:50:45;9.10;99.90
23562;DHT22;11959;49.418;8.728;2022-11-20T12:56:48;9.00;99.90
23562;DHT22;11959;49.418;8.728;2022-11-20T13:00:08;8.90;99.90
23562;DHT22;11959;49.418;8.728;2022-11-20T13:07:34;8.80;99.90
23562;DHT22;11959;49.418;8.728;2022-11-20T13:10:00;8.70;99.90
23562;DHT22;11959;49.418;8.728;2022-11-20T13:12:49;8.70;99.90
23562;DHT22;11959;49.418;8.728;2022-11-20T13:18:04;8.70;99.90
23562;DHT22;11959;49.418;8.728;2022-11-20T13:20:31;8.70;99.90
23562;DHT22;11959;49.418;8.728;2022-11-20T13:22:58;8.80;99.90
23562;DHT22;11959;49.418;8.728;2022-11-20T13:25:29;8.90;99.90
23562;DHT22;11959;49.418;8.728;2022-11-20T13:27:57;8.90;99.90
23562;DHT22;11959;49.418;8.728;2022-11-20T13:30:25;8.90;99.90
23562;DHT22;11959;49.418;8.728;2022-11-20T13:32:56;8.90;99.90
23562;DHT22;11959;49.418;8.728;2022-11-20T13:35:35;9.00;99.90
23562;DHT22;11959;49.418;8.728;2022-11-20T13:38:05;9.00;99.90
23562;DHT22;11959;49.418;8.728;2022-11-20T13:40:32;9.10;99.90
23562;DHT22;11959;49.418;8.728;2022-11-20T13:43:14;9.00;99.90
23562;DHT22;11959;49.418;8.728;2022-11-20T13:45:41;9.00;99.90
23562;DHT22;11959;49.418;8.728;2022-11-20T13:48:34;9.00;99.90
23562;DHT22;11959;49.418;8.728;2022-11-20T13:51:36;9.00;99.90
23562;DHT22;11959;49.418;8.728;2022-11-20T13:59:37;9.00;99.90
23562;DHT22;11959;49.418;8.728;2022-11-20T14:02:14;9.10;99.90
23562;DHT22;11959;49.418;8.728;2022-11-20T14:04:47;9.10;99.90
23562;DHT22;11959;49.418;8.728;2022-11-20T14:07:14;9.10;99.90
23562;DHT22;11959;49.418;8.728;2022-11-20T14:09:50;9.00;99.90
23562;DHT22;11959;49.418;8.728;2022-11-20T14:12:19;9.00;99.90
23562;DHT22;11959;49.418;8.728;2022-11-20T14:14:51;9.00;99.90
23562;DHT22;11959;49.418;8.728;2022-11-20T14:17:31;8.90;99.90
23562;DHT22;11959;49.418;8.728;2022-11-20T14:20:12;8.90;99.90
23562;DHT22;11959;49.418;8.728;2022-11-20T14:22:39;8.80;99.90
23562;DHT22;11959;49.418;8.728;2022-11-20T14:27:41;8.70;99.90
23562;DHT22;11959;49.418;8.728;2022-11-20T14:30:25;8.60;99.90
23562;DHT22;11959;49.418;8.728;2022-11-20T14:32:54;8.50;99.90
23562;DHT22;11959;49.418;8.728;2022-11-20T14:35:29;8.40;99.90
23562;DHT22;11959;49.418;8.728;2022-11-20T14:37:56;8.40;99.90
23562;DHT22;11959;49.418;8.728;2022-11-20T14:40:33;8.30;99.90
23562;DHT22;11959;49.418;8.728;2022-11-20T14:43:19;8.30;99.90
23562;DHT22;11959;49.418;8.728;2022-11-20T14:45:51;8.30;99.90
23562;DHT22;11959;49.418;8.728;2022-11-20T14:48:19;8.20;99.90
23562;DHT22;11959;49.418;8.728;2022-11-20T14:50:47;8.20;99.90
23562;DHT22;11959;49.418;8.728;2022-11-20T14:53:22;8.10;99.90
23562;DHT22;11959;49.418;8.728;2022-11-20T14:55:55;8.10;99.90
23562;DHT22;11959;49.418;8.728;2022-11-20T14:58:27;8.00;99.90
23562;DHT22;11959;49.418;8.728;2022-11-20T15:00:55;8.00;99.90
23562;DHT22;11959;49.418;8.728;2022-11-20T15:03:21;7.90;99.90
23562;DHT22;11959;49.418;8.728;2022-11-20T15:05:48;7.90;99.90
23562;DHT22;11959;49.418;8.728;2022-11-20T15:08:15;7.80;99.90
23562;DHT22;11959;49.418;8.728;2022-11-20T15:10:49;7.80;99.90
23562;DHT22;11959;49.418;8.728;2022-11-20T15:15:50;7.80;99.90
23562;DHT22;11959;49.418;8.728;2022-11-20T15:18:19;7.70;99.90
23562;DHT22;11959;49.418;8.728;2022-11-20T15:20:46;7.70;99.90
23562;DHT22;11959;49.418;8.728;2022-11-20T15:23:14;7.70;99.90
23562;DHT22;11959;49.418;8.728;2022-11-20T15:25:40;7.60;99.90
23562;DHT22;11959;49.418;8.728;2022-11-20T15:30:48;7.60;99.90
23562;DHT22;11959;49.418;8.728;2022-11-20T15:33:17;7.70;99.90
23562;DHT22;11959;49.418;8.728;2022-11-20T15:35:43;7.60;99.90
23562;DHT22;11959;49.418;8.728;2022-11-20T15:38:09;7.50;99.90
23562;DHT22;11959;49.418;8.728;2022-11-20T15:40:35;7.60;99.90
23562;DHT22;11959;49.418;8.728;2022-11-20T15:43:00;7.50;99.90
23562;DHT22;11959;49.418;8.728;2022-11-20T15:45:48;7.50;99.90
23562;DHT22;11959;49.418;8.728;2022-11-20T15:48:20;7.40;99.90
23562;DHT22;11959;49.418;8.728;2022-11-20T15:53:39;7.30;99.90
23562;DHT22;11959;49.418;8.728;2022-11-20T15:56:06;7.30;99.90
23562;DHT22;11959;49.418;8.728;2022-11-20T15:58:31;7.20;99.90
23562;DHT22;11959;49.418;8.728;2022-11-20T16:00:57;7.20;99.90
23562;DHT22;11959;49.418;8.728;2022-11-20T16:03:23;7.20;99.90
23562;DHT22;11959;49.418;8.728;2022-11-20T16:05:49;7.20;99.90
23562;DHT22;11959;49.418;8.728;2022-11-20T16:08:15;7.20;99.90
23562;DHT22;11959;49.418;8.728;2022-11-20T16:10:41;7.20;99.90
23562;DHT22;11959;49.418;8.728;2022-11-20T16:13:15;7.10;99.90
23562;DHT22;11959;49.418;8.728;2022-11-20T16:16:02;7.20;99.90
23562;DHT22;11959;49.418;8.728;2022-11-20T16:18:30;7.20;99.90
23562;DHT22;11959;49.418;8.728;2022-11-20T16:20:56;7.20;99.90
23562;DHT22;11959;49.418;8.728;2022-11-20T16:23:22;7.20;99.90
23562;DHT22;11959;49.418;8.728;2022-11-20T16:25:49;7.20;99.90
23562;DHT22;11959;49.418;8.728;2022-11-20T16:28:15;7.20;99.90
23562;DHT22;11959;49.418;8.728;2022-11-20T16:30:41;7.20;99.90
23562;DHT22;11959;49.418;8.728;2022-11-20T16:33:11;7.20;99.90
23562;DHT22;11959;49.418;8.728;2022-11-20T16:35:37;7.20;99.90
23562;DHT22;11959;49.418;8.728;2022-11-20T16:38:03;7.20;99.90
23562;DHT22;11959;49.418;8.728;2022-11-20T16:40:29;7.20;99.90
23562;DHT22;11959;49.418;8.728;2022-11-20T16:42:54;7.20;99.90
23562;DHT22;11959;49.418;8.728;2022-11-20T16:45:20;7.10;99.90
23562;DHT22;11959;49.418;8.728;2022-11-20T16:47:46;7.20;99.90
23562;DHT22;11959;49.418;8.728;2022-11-20T16:50:12;7.20;99.90
23562;DHT22;11959;49.418;8.728;2022-11-20T16:52:38;7.20;99.90
23562;DHT22;11959;49.418;8.728;2022-11-20T16:55:04;7.20;99.90
23562;DHT22;11959;49.418;8.728;2022-11-20T16:57:30;7.20;99.90
23562;DHT22;11959;49.418;8.728;2022-11-20T16:59:58;7.20;99.90
23562;DHT22;11959;49.418;8.728;2022-11-20T17:02:24;7.20;99.90
23562;DHT22;11959;49.418;8.728;2022-11-20T17:04:51;7.20;99.90
23562;DHT22;11959;49.418;8.728;2022-11-20T17:07:16;7.30;99.90
23562;DHT22;11959;49.418;8.728;2022-11-20T17:09:42;7.40;99.90
23562;DHT22;11959;49.418;8.728;2022-11-20T17:12:08;7.40;99.90
23562;DHT22;11959;49.418;8.728;2022-11-20T17:14:34;7.40;99.90
23562;DHT22;11959;49.418;8.728;2022-11-20T17:16:59;7.40;99.90
23562;DHT22;11959;49.418;8.728;2022-11-20T17:19:25;7.40;99.90
23562;DHT22;11959;49.418;8.728;2022-11-20T17:21:50;7.40;99.90
23562;DHT22;11959;49.418;8.728;2022-11-20T17:24:16;7.50;99.90
23562;DHT22;11959;49.418;8.728;2022-11-20T17:26:43;7.50;99.90
23562;DHT22;11959;49.418;8.728;2022-11-20T17:29:10;7.50;99.90
23562;DHT22;11959;49.418;8.728;2022-11-20T17:31:36;7.50;99.90
23562;DHT22;11959;49.418;8.728;2022-11-20T17:34:06;7.50;99.90
23562;DHT22;11959;49.418;8.728;2022-11-20T17:36:32;7.50;99.90
23562;DHT22;11959;49.418;8.728;2022-11-20T17:38:58;7.50;99.90
23562;DHT22;11959;49.418;8.728;2022-11-20T17:41:26;7.50;99.90